Time;durP1;ratioP1;P1;durP2;ratioP2;P2;SDS_P1;SDS_P2;PMS_P1;PMS_P2;Temp;Humidity;BMP_temperature;BMP_pressure;BME280_temperature;BME280_humidity;BME280_pressure;Samples;Min_cycle;Max_cycle;Signal;HPM_P1;HPM_P2
2023/01/17 00:01:40;;;;;;;;;;;;;;;;;;5034727;28;1240;-73
2023/01/17 00:09:55;;;;;;;;;;;;;;;;;;5015289;28;1227;-72
2023/01/17 00:12:22;;;;;;;;;;;;;;;;;;5033306;28;1207;-72
2023/01/17 00:14:48;;;;;;;;;;;;;;;;;;5034594;28;876;-73
2023/01/17 00:17:13;;;;;;;;;;;;;;;;;;5033360;28;1326;-73
2023/01/17 01:34:05;;;;;;;;;;;;;;;;;;5030633;28;1132;-73
2023/01/17 01:36:30;;;;;;;;;;;;;;;;;;5030518;28;1283;-73
2023/01/17 01:38:56;;;;;;;;;;;;;;;;;;5013705;28;1284;-73
2023/01/17 01:41:21;;;;;;;;;;;;;;;;;;5013643;28;1207;-73
2023/01/17 01:43:48;;;;;;;;;;;;;;;;;;5029880;28;1902;-73
2023/01/17 01:46:19;;;;;;;;;;;;;;;;;;5030336;28;1330;-73
2023/01/17 01:48:54;;;;;;;;;;;;;;;;;;5031068;28;1249;-72
2023/01/17 01:51:40;;;;;;;;;;;;;;;;;;5030102;28;1263;-73
2023/01/17 01:54:27;;;;;;;;;;;;;;;;;;5029558;28;1431;-73
2023/01/17 01:56:53;;;;;;;;;;;;;;;;;;5030815;28;827;-73
2023/01/17 01:59:19;;;;;;;;;;;;;;;;;;5030137;28;1191;-73
2023/01/17 02:01:45;;;;;;;;;;;;;;;;;;5030843;28;1344;-73
2023/01/17 02:04:11;;;;;;;;;;;;;;;;;;5031117;28;1915;-73
2023/01/17 02:06:59;;;;;;;;;;;;;;;;;;5030151;28;908;-73
2023/01/17 02:09:25;;;;;;;;;;;;;;;;;;5031221;28;876;-73
2023/01/17 02:11:51;;;;;;;;;;;;;;;;;;5029414;28;1281;-73
2023/01/17 02:14:18;;;;;;;;;;;;;;;;;;5013465;28;1429;-73
2023/01/17 02:17:01;;;;;;;;;;;;;;;;;;5030736;28;962;-73
2023/01/17 02:19:29;;;;;;;;;;;;;;;;;;5030878;28;837;-73
2023/01/17 02:21:54;;;;;;;;;;;;;;;;;;5031151;28;1971;-73
2023/01/17 02:24:43;;;;;;;;;;;;;;;;;;5030356;28;1219;-73
2023/01/17 02:27:23;;;;;;;;;;;;;;;;;;5021686;28;1267;-73
2023/01/17 02:30:07;;;;;;;;;;;;;;;;;;5030324;28;1204;-73
2023/01/17 02:32:36;;;;;;;;;;;;;;;;;;5033585;28;1109;-73
2023/01/17 02:35:20;;;;;;;;;;;;;;;;;;5033028;28;1303;-73
2023/01/17 02:37:56;;;;;;;;;;;;;;;;;;5034394;28;979;-73
2023/01/17 02:40:25;;;;;;;;;;;;;;;;;;5033781;28;1143;-74
2023/01/17 02:42:55;;;;;;;;;;;;;;;;;;5033403;28;1961;-73
2023/01/17 02:45:20;;;;;;;;;;;;;;;;;;5033659;28;1223;-73
2023/01/17 02:47:46;;;;;;;;;;;;;;;;;;5016201;28;1366;-73
2023/01/17 02:50:14;;;;;;;;;;;;;;;;;;5032463;28;1181;-73
2023/01/17 02:52:55;;;;;;;;;;;;;;;;;;5031143;28;1520;-73
2023/01/17 02:55:21;;;;;;;;;;;;;;;;;;5030102;28;1214;-73
2023/01/17 02:58:08;;;;;;;;;;;;;;;;;;5031558;28;1165;-73
2023/01/17 03:00:56;;;;;;;;;;;;;;;;;;5032859;28;1286;-73
2023/01/17 03:03:31;;;;;;;;;;;;;;;;;;5010655;28;1910;-73
2023/01/17 03:06:17;;;;;;;;;;;;;;;;;;5034598;28;789;-73
2023/01/17 03:08:48;;;;;;;;;;;;;;;;;;5035096;28;945;-72
2023/01/17 03:11:13;;;;;;;;;;;;;;;;;;5033309;28;1295;-72
2023/01/17 03:13:40;;;;;;;;;;;;;;;;;;5032862;28;1299;-72
2023/01/17 03:16:07;;;;;;;;;;;;;;;;;;5033914;28;865;-72
2023/01/17 03:18:33;;;;;;;;;;;;;;;;;;5034042;28;1040;-72
2023/01/17 03:20:58;;;;;;;;;;;;;;;;;;5015814;28;1363;-73
2023/01/17 03:23:23;;;;;;;;;;;;;;;;;;5034183;28;1916;-72
2023/01/17 03:25:49;;;;;;;;;;;;;;;;;;5033623;28;1346;-72
2023/01/17 03:28:16;;;;;;;;;;;;;;;;;;5032615;28;790;-72
2023/01/17 03:30:42;;;;;;;;;;;;;;;;;;5032914;28;1457;-72
2023/01/17 03:33:07;;;;;;;;;;;;;;;;;;5032116;28;1197;-72
2023/01/17 03:35:32;;;;;;;;;;;;;;;;;;5032386;28;1378;-73
2023/01/17 03:37:58;;;;;;;;;;;;;;;;;;5033800;28;924;-72
2023/01/17 03:40:23;;;;;;;;;;;;;;;;;;5033678;28;785;-72
2023/01/17 03:42:48;;;;;;;;;;;;;;;;;;5031175;28;1903;-73
2023/01/17 03:45:13;;;;;;;;;;;;;;;;;;5032231;28;747;-72
2023/01/17 03:47:41;;;;;;;;;;;;;;;;;;5032294;28;980;-72
2023/01/17 03:50:07;;;;;;;;;;;;;;;;;;5032619;28;1283;-72
2023/01/17 03:52:32;;;;;;;;;;;;;;;;;;5030545;28;1264;-72
2023/01/17 03:54:58;;;;;;;;;;;;;;;;;;5030768;28;1081;-72
2023/01/17 03:57:23;;;;;;;;;;;;;;;;;;5032060;28;1307;-72
2023/01/17 03:59:48;;;;;;;;;;;;;;;;;;5015542;28;1254;-73
2023/01/17 04:02:14;;;;;;;;;;;;;;;;;;5033066;28;1914;-72
2023/01/17 04:04:42;;;;;;;;;;;;;;;;;;5032074;28;979;-72
2023/01/17 04:07:07;;;;;;;;;;;;;;;;;;5031797;28;1025;-72
2023/01/17 04:09:33;;;;;;;;;;;;;;;;;;5033674;28;892;-73
2023/01/17 04:12:02;;;;;;;;;;;;;;;;;;5032520;28;877;-72
2023/01/17 04:14:27;;;;;;;;;;;;;;;;;;5015790;28;1307;-72
2023/01/17 04:16:53;;;;;;;;;;;;;;;;;;5016012;28;1410;-72
2023/01/17 04:19:19;;;;;;;;;;;;;;;;;;5033150;28;999;-72
2023/01/17 04:21:44;;;;;;;;;;;;;;;;;;5032202;28;1334;-72
2023/01/17 04:24:09;;;;;;;;;;;;;;;;;;5015151;28;1898;-73
2023/01/17 04:26:35;;;;;;;;;;;;;;;;;;5016108;28;1330;-72
2023/01/17 04:29:00;;;;;;;;;;;;;;;;;;5032486;28;829;-73
2023/01/17 04:31:25;;;;;;;;;;;;;;;;;;5032073;28;1219;-72
2023/01/17 04:33:52;;;;;;;;;;;;;;;;;;5033092;28;848;-72
2023/01/17 04:36:20;;;;;;;;;;;;;;;;;;5032062;28;794;-72
2023/01/17 04:38:47;;;;;;;;;;;;;;;;;;5032300;28;951;-72
2023/01/17 04:41:13;;;;;;;;;;;;;;;;;;5032656;28;1112;-72
2023/01/17 04:43:38;;;;;;;;;;;;;;;;;;5031310;28;1898;-72
2023/01/17 04:46:08;;;;;;;;;;;;;;;;;;5031463;28;1203;-72
2023/01/17 04:48:34;;;;;;;;;;;;;;;;;;5031791;28;904;-73
2023/01/17 04:51:00;;;;;;;;;;;;;;;;;;5014636;28;1212;-72
2023/01/17 04:53:25;;;;;;;;;;;;;;;;;;5032243;28;853;-73
2023/01/17 04:55:50;;;;;;;;;;;;;;;;;;5030803;28;1228;-73
2023/01/17 04:58:15;;;;;;;;;;;;;;;;;;5031060;28;1185;-73
2023/01/17 05:00:41;;;;;;;;;;;;;;;;;;5032243;28;987;-72
2023/01/17 05:03:07;;;;;;;;;;;;;;;;;;5030416;28;1902;-72
2023/01/17 05:05:32;;;;;;;;;;;;;;;;;;5014799;28;1389;-73
2023/01/17 05:07:58;;;;;;;;;;;;;;;;;;5014423;28;1185;-72
2023/01/17 05:10:24;;;;;;;;;;;;;;;;;;5030520;28;1367;-72
2023/01/17 05:12:56;;;;;;;;;;;;;;;;;;5030768;28;1541;-73
2023/01/17 05:15:22;;;;;;;;;;;;;;;;;;5030537;28;1208;-72
2023/01/17 05:17:47;;;;;;;;;;;;;;;;;;5031851;28;980;-72
2023/01/17 05:20:12;;;;;;;;;;;;;;;;;;5030512;28;872;-72
2023/01/17 05:22:38;;;;;;;;;;;;;;;;;;5030497;28;1910;-72
2023/01/17 05:25:03;;;;;;;;;;;;;;;;;;5032008;28;814;-72
2023/01/17 05:27:29;;;;;;;;;;;;;;;;;;5030535;28;1128;-73
2023/01/17 05:29:54;;;;;;;;;;;;;;;;;;5013818;28;1430;-72
2023/01/17 05:32:19;;;;;;;;;;;;;;;;;;5014384;28;1274;-73
2023/01/17 05:34:44;;;;;;;;;;;;;;;;;;5031708;28;904;-72
2023/01/17 05:37:10;;;;;;;;;;;;;;;;;;5030689;28;1168;-72
2023/01/17 05:39:38;;;;;;;;;;;;;;;;;;5032029;28;868;-73
2023/01/17 05:42:04;;;;;;;;;;;;;;;;;;5030383;28;1963;-72
2023/01/17 05:44:29;;;;;;;;;;;;;;;;;;5031033;28;883;-72
2023/01/17 05:46:55;;;;;;;;;;;;;;;;;;5032203;28;845;-72
2023/01/17 05:49:20;;;;;;;;;;;;;;;;;;5030822;28;1223;-73
2023/01/17 05:51:46;;;;;;;;;;;;;;;;;;5031930;28;885;-73
2023/01/17 05:54:12;;;;;;;;;;;;;;;;;;5011907;28;1461;-73
2023/01/17 05:56:37;;;;;;;;;;;;;;;;;;5013627;28;1354;-72
2023/01/17 05:59:02;;;;;;;;;;;;;;;;;;5030272;28;1283;-72
2023/01/17 06:01:31;;;;;;;;;;;;;;;;;;5030175;28;1192;-73
2023/01/17 06:03:56;;;;;;;;;;;;;;;;;;5030077;28;1918;-72
2023/01/17 06:06:21;;;;;;;;;;;;;;;;;;5016389;28;1341;-73
2023/01/17 06:08:52;;;;;;;;;;;;;;;;;;5034230;28;1353;-73
2023/01/17 06:11:17;;;;;;;;;;;;;;;;;;5018252;28;1237;-72
2023/01/17 06:13:42;;;;;;;;;;;;;;;;;;5018027;28;1300;-72
2023/01/17 06:16:08;;;;;;;;;;;;;;;;;;5034159;28;1047;-73
2023/01/17 06:18:33;;;;;;;;;;;;;;;;;;5034120;28;861;-72
2023/01/17 06:21:01;;;;;;;;;;;;;;;;;;5034416;28;924;-73
2023/01/17 06:23:27;;;;;;;;;;;;;;;;;;5018200;28;1967;-73
2023/01/17 06:25:52;;;;;;;;;;;;;;;;;;5033612;28;1330;-72
2023/01/17 06:28:18;;;;;;;;;;;;;;;;;;5033690;28;923;-73
2023/01/17 06:30:44;;;;;;;;;;;;;;;;;;5033869;28;1268;-73
2023/01/17 06:33:10;;;;;;;;;;;;;;;;;;5035314;28;833;-73
2023/01/17 06:35:39;;;;;;;;;;;;;;;;;;5034154;28;1449;-73
2023/01/17 06:38:05;;;;;;;;;;;;;;;;;;5017884;28;1323;-73
2023/01/17 06:40:34;;;;;;;;;;;;;;;;;;5033728;28;1322;-73
2023/01/17 06:43:00;;;;;;;;;;;;;;;;;;5034611;28;1902;-73
2023/01/17 06:45:28;;;;;;;;;;;;;;;;;;5034870;28;930;-73
2023/01/17 06:47:54;;;;;;;;;;;;;;;;;;5032997;28;1265;-73
2023/01/17 06:50:24;;;;;;;;;;;;;;;;;;5033851;28;1390;-72
2023/01/17 06:52:55;;;;;;;;;;;;;;;;;;5033275;28;1247;-73
2023/01/17 06:55:20;;;;;;;;;;;;;;;;;;5033216;28;1133;-72
2023/01/17 06:57:53;;;;;;;;;;;;;;;;;;5032558;28;900;-73
2023/01/17 07:00:19;;;;;;;;;;;;;;;;;;5034323;28;837;-74
2023/01/17 07:02:48;;;;;;;;;;;;;;;;;;5034616;28;1905;-73
2023/01/17 07:05:15;;;;;;;;;;;;;;;;;;5033939;28;1445;-72
2023/01/17 07:07:40;;;;;;;;;;;;;;;;;;5016891;28;1304;-73
2023/01/17 07:10:12;;;;;;;;;;;;;;;;;;5033377;28;995;-73
2023/01/17 07:12:46;;;;;;;;;;;;;;;;;;5033623;28;1284;-73
2023/01/17 07:15:12;;;;;;;;;;;;;;;;;;5033472;28;1216;-73
2023/01/17 07:17:37;;;;;;;;;;;;;;;;;;5031579;28;1078;-74
2023/01/17 07:20:03;;;;;;;;;;;;;;;;;;5034601;28;1152;-74
2023/01/17 07:22:29;;;;;;;;;;;;;;;;;;5032699;28;1898;-73
2023/01/17 07:24:57;;;;;;;;;;;;;;;;;;5016648;28;1175;-73
2023/01/17 07:27:23;;;;;;;;;;;;;;;;;;5016779;28;1420;-72
2023/01/17 07:29:56;;;;;;;;;;;;;;;;;;5016702;28;1394;-72
2023/01/17 07:32:22;;;;;;;;;;;;;;;;;;5017103;28;1362;-72
2023/01/17 07:34:47;;;;;;;;;;;;;;;;;;5014748;28;1251;-72
2023/01/17 07:37:12;;;;;;;;;;;;;;;;;;5014886;28;1299;-74
2023/01/17 07:39:38;;;;;;;;;;;;;;;;;;5032196;28;1086;-74
2023/01/17 07:42:03;;;;;;;;;;;;;;;;;;5015610;28;1906;-74
2023/01/17 07:44:28;;;;;;;;;;;;;;;;;;5015806;28;1205;-74
2023/01/17 07:46:54;;;;;;;;;;;;;;;;;;5032035;28;1276;-75
2023/01/17 07:49:19;;;;;;;;;;;;;;;;;;5032309;28;1327;-75
2023/01/17 07:51:47;;;;;;;;;;;;;;;;;;5015848;28;1164;-73
2023/01/17 07:54:13;;;;;;;;;;;;;;;;;;5015595;28;1312;-72
2023/01/17 07:56:38;;;;;;;;;;;;;;;;;;5015672;28;1247;-74
2023/01/17 07:59:07;;;;;;;;;;;;;;;;;;5015655;28;1227;-74
2023/01/17 08:01:32;;;;;;;;;;;;;;;;;;5030959;28;1267;-75
2023/01/17 08:03:57;;;;;;;;;;;;;;;;;;5029162;28;1973;-74
2023/01/17 08:06:24;;;;;;;;;;;;;;;;;;5031373;28;904;-74
2023/01/17 08:08:51;;;;;;;;;;;;;;;;;;5032323;28;1235;-74
2023/01/17 08:11:17;;;;;;;;;;;;;;;;;;5033185;28;778;-73
2023/01/17 08:13:42;;;;;;;;;;;;;;;;;;5032922;28;951;-74
2023/01/17 08:16:11;;;;;;;;;;;;;;;;;;5031814;28;837;-72
2023/01/17 08:18:36;;;;;;;;;;;;;;;;;;5032697;28;896;-73
2023/01/17 08:21:02;;;;;;;;;;;;;;;;;;5033311;28;889;-73
2023/01/17 08:23:29;;;;;;;;;;;;;;;;;;5031780;28;1965;-74
2023/01/17 08:25:58;;;;;;;;;;;;;;;;;;5031431;28;1405;-71
2023/01/17 08:28:24;;;;;;;;;;;;;;;;;;5031273;28;1088;-75
2023/01/17 08:30:51;;;;;;;;;;;;;;;;;;5015235;28;1384;-71
2023/01/17 08:33:17;;;;;;;;;;;;;;;;;;5031690;28;917;-71
2023/01/17 08:35:52;;;;;;;;;;;;;;;;;;5032610;28;904;-72
2023/01/17 08:38:18;;;;;;;;;;;;;;;;;;5033296;28;840;-73
2023/01/17 08:40:43;;;;;;;;;;;;;;;;;;5031256;28;1346;-71
2023/01/17 08:43:08;;;;;;;;;;;;;;;;;;5032463;28;1890;-73
2023/01/17 08:45:34;;;;;;;;;;;;;;;;;;5032763;28;892;-71
2023/01/17 08:48:05;;;;;;;;;;;;;;;;;;5031658;28;1295;-74
2023/01/17 08:50:30;;;;;;;;;;;;;;;;;;5031947;28;972;-72
2023/01/17 08:52:59;;;;;;;;;;;;;;;;;;5033245;28;949;-73
2023/01/17 08:55:25;;;;;;;;;;;;;;;;;;5031684;28;1342;-73
2023/01/17 08:57:52;;;;;;;;;;;;;;;;;;5033175;28;884;-73
2023/01/17 09:00:18;;;;;;;;;;;;;;;;;;5015653;28;1227;-71
2023/01/17 09:02:46;;;;;;;;;;;;;;;;;;5013788;28;1898;-72
2023/01/17 09:05:15;;;;;;;;;;;;;;;;;;5031199;28;900;-72
2023/01/17 09:07:40;;;;;;;;;;;;;;;;;;5030662;28;1507;-73
2023/01/17 09:10:05;;;;;;;;;;;;;;;;;;5030742;28;948;-71
2023/01/17 09:12:31;;;;;;;;;;;;;;;;;;5031072;28;845;-72
2023/01/17 09:14:57;;;;;;;;;;;;;;;;;;5030332;28;1247;-71
2023/01/17 09:17:22;;;;;;;;;;;;;;;;;;5014526;28;1361;-72
2023/01/17 09:19:47;;;;;;;;;;;;;;;;;;5032220;28;916;-71
2023/01/17 09:22:13;;;;;;;;;;;;;;;;;;5030857;28;1886;-71
2023/01/17 09:24:39;;;;;;;;;;;;;;;;;;5030650;28;1377;-71
2023/01/17 09:27:05;;;;;;;;;;;;;;;;;;5014023;28;1311;-71
2023/01/17 09:29:30;;;;;;;;;;;;;;;;;;5030638;28;1279;-71
2023/01/17 09:31:55;;;;;;;;;;;;;;;;;;5030550;28;997;-71
2023/01/17 09:34:23;;;;;;;;;;;;;;;;;;5032472;28;777;-71
2023/01/17 09:36:48;;;;;;;;;;;;;;;;;;5030655;28;1303;-72
2023/01/17 09:39:16;;;;;;;;;;;;;;;;;;5014044;28;1314;-71
2023/01/17 09:41:54;;;;;;;;;;;;;;;;;;5030279;28;1144;-71
2023/01/17 09:44:27;;;;;;;;;;;;;;;;;;5030654;28;1917;-71
2023/01/17 09:46:57;;;;;;;;;;;;;;;;;;5031719;28;809;-74
2023/01/17 09:49:30;;;;;;;;;;;;;;;;;;5031259;28;1369;-74
2023/01/17 09:51:55;;;;;;;;;;;;;;;;;;5030736;28;1480;-74
2023/01/17 09:54:26;;;;;;;;;;;;;;;;;;5031555;28;1247;-74
2023/01/17 09:57:00;;;;;;;;;;;;;;;;;;5033034;28;951;-70
2023/01/17 09:59:33;;;;;;;;;;;;;;;;;;5031003;28;1347;-71
2023/01/17 10:02:07;;;;;;;;;;;;;;;;;;5031463;28;1129;-71
2023/01/17 10:04:50;;;;;;;;;;;;;;;;;;5030172;28;985;-71
2023/01/17 10:07:27;;;;;;;;;;;;;;;;;;5030393;28;1475;-78
2023/01/17 10:09:57;;;;;;;;;;;;;;;;;;5031415;28;1183;-71
2023/01/17 10:12:28;;;;;;;;;;;;;;;;;;5030307;28;1242;-71
2023/01/17 10:15:09;;;;;;;;;;;;;;;;;;5030271;28;1276;-71
2023/01/17 10:17:53;;;;;;;;;;;;;;;;;;5031361;28;872;-72
2023/01/17 10:20:33;;;;;;;;;;;;;;;;;;5030800;28;1420;-71
2023/01/17 10:23:17;;;;;;;;;;;;;;;;;;5031602;28;1969;-71
2023/01/17 10:25:47;;;;;;;;;;;;;;;;;;5030029;28;1511;-71
2023/01/17 10:28:38;;;;;;;;;;;;;;;;;;5031490;28;904;-71
2023/01/17 10:31:06;;;;;;;;;;;;;;;;;;5026575;28;1200;-72
2023/01/17 10:33:38;;;;;;;;;;;;;;;;;;5030091;28;1263;-71
2023/01/17 10:36:09;;;;;;;;;;;;;;;;;;5031388;28;837;-71
2023/01/17 10:38:36;;;;;;;;;;;;;;;;;;5030414;28;1401;-71
2023/01/17 10:41:13;;;;;;;;;;;;;;;;;;5031209;28;915;-71
2023/01/17 10:43:51;;;;;;;;;;;;;;;;;;5031790;28;1903;-71
2023/01/17 10:46:31;;;;;;;;;;;;;;;;;;5030524;28;1280;-71
2023/01/17 10:49:00;;;;;;;;;;;;;;;;;;5029800;28;1530;-70
2023/01/17 10:51:48;;;;;;;;;;;;;;;;;;5032011;28;856;-71
2023/01/17 10:54:34;;;;;;;;;;;;;;;;;;5033666;28;1343;-71
2023/01/17 10:57:00;;;;;;;;;;;;;;;;;;5035451;28;927;-71
2023/01/17 10:59:30;;;;;;;;;;;;;;;;;;5017799;28;1232;-71
2023/01/17 11:01:56;;;;;;;;;;;;;;;;;;5034787;28;1129;-71
2023/01/17 11:04:36;;;;;;;;;;;;;;;;;;5016770;28;1979;-71
2023/01/17 11:07:18;;;;;;;;;;;;;;;;;;5034654;28;904;-71
2023/01/17 11:09:48;;;;;;;;;;;;;;;;;;5033299;28;1350;-71
2023/01/17 11:12:18;;;;;;;;;;;;;;;;;;5034935;28;869;-71
2023/01/17 11:15:05;;;;;;;;;;;;;;;;;;5034955;28;782;-71
2023/01/17 11:17:31;;;;;;;;;;;;;;;;;;5033555;28;1156;-71
2023/01/17 11:20:25;;;;;;;;;;;;;;;;;;5034555;28;893;-71
2023/01/17 11:23:09;;;;;;;;;;;;;;;;;;5024777;28;1890;-71
2023/01/17 11:25:35;;;;;;;;;;;;;;;;;;5031632;28;1267;-71
2023/01/17 11:28:02;;;;;;;;;;;;;;;;;;5030787;28;1011;-69
2023/01/17 11:30:28;;;;;;;;;;;;;;;;;;5031166;28;1437;-71
2023/01/17 11:32:59;;;;;;;;;;;;;;;;;;5014500;28;1241;-70
2023/01/17 11:35:29;;;;;;;;;;;;;;;;;;5031590;28;1352;-71
2023/01/17 11:38:01;;;;;;;;;;;;;;;;;;5033220;28;857;-71
2023/01/17 11:40:27;;;;;;;;;;;;;;;;;;5031742;28;1371;-71
2023/01/17 11:43:00;;;;;;;;;;;;;;;;;;5032275;28;1952;-71
2023/01/17 11:45:27;;;;;;;;;;;;;;;;;;5034065;28;920;-71
2023/01/17 11:48:22;;;;;;;;;;;;;;;;;;5034106;28;1015;-71
2023/01/17 11:50:50;;;;;;;;;;;;;;;;;;5019768;28;1299;-71
2023/01/17 11:53:20;;;;;;;;;;;;;;;;;;5034097;28;907;-71
2023/01/17 11:55:54;;;;;;;;;;;;;;;;;;5032797;28;1184;-70
2023/01/17 11:58:19;;;;;;;;;;;;;;;;;;5032749;28;1292;-71
2023/01/17 12:00:46;;;;;;;;;;;;;;;;;;5033415;28;1219;-71
2023/01/17 12:03:13;;;;;;;;;;;;;;;;;;5032138;28;1981;-72
2023/01/17 12:05:46;;;;;;;;;;;;;;;;;;5032701;28;845;-71
2023/01/17 12:08:24;;;;;;;;;;;;;;;;;;5031190;28;1476;-72
2023/01/17 12:10:59;;;;;;;;;;;;;;;;;;5033253;28;1362;-72
2023/01/17 12:14:01;;;;;;;;;;;;;;;;;;5034294;28;920;-72
2023/01/17 12:16:48;;;;;;;;;;;;;;;;;;5032740;28;1298;-71
2023/01/17 12:19:31;;;;;;;;;;;;;;;;;;5032505;28;1168;-71
2023/01/17 12:22:15;;;;;;;;;;;;;;;;;;5032162;28;1320;-71
2023/01/17 12:24:59;;;;;;;;;;;;;;;;;;5032305;28;1212;-72
2023/01/17 12:27:38;;;;;;;;;;;;;;;;;;5032552;28;1185;-72
2023/01/17 12:30:22;;;;;;;;;;;;;;;;;;5031897;28;1266;-72
2023/01/17 12:32:57;;;;;;;;;;;;;;;;;;5033758;28;976;-72
2023/01/17 12:35:29;;;;;;;;;;;;;;;;;;5033290;28;856;-72
2023/01/17 12:38:02;;;;;;;;;;;;;;;;;;5033448;28;924;-72
2023/01/17 12:40:32;;;;;;;;;;;;;;;;;;5031929;28;1236;-73
2023/01/17 12:43:12;;;;;;;;;;;;;;;;;;5032910;28;1902;-72
2023/01/17 12:45:40;;;;;;;;;;;;;;;;;;5032154;28;1204;-72
2023/01/17 12:48:11;;;;;;;;;;;;;;;;;;5031533;28;1541;-72
2023/01/17 12:50:42;;;;;;;;;;;;;;;;;;5031353;28;1319;-72
2023/01/17 12:53:17;;;;;;;;;;;;;;;;;;5032253;28;880;-72
2023/01/17 12:55:46;;;;;;;;;;;;;;;;;;5033157;28;864;-72
2023/01/17 12:58:18;;;;;;;;;;;;;;;;;;5032808;28;999;-72
2023/01/17 13:00:45;;;;;;;;;;;;;;;;;;5032025;28;1378;-71
2023/01/17 13:03:10;;;;;;;;;;;;;;;;;;5031201;28;1962;-72
2023/01/17 13:05:39;;;;;;;;;;;;;;;;;;5032191;28;1172;-72
2023/01/17 13:08:23;;;;;;;;;;;;;;;;;;5033036;28;818;-72
2023/01/17 13:10:58;;;;;;;;;;;;;;;;;;5031711;28;1236;-72
2023/01/17 13:13:25;;;;;;;;;;;;;;;;;;5033021;28;908;-72
2023/01/17 13:15:53;;;;;;;;;;;;;;;;;;5031957;28;1299;-72
2023/01/17 13:18:24;;;;;;;;;;;;;;;;;;5031194;28;1417;-71
2023/01/17 13:20:51;;;;;;;;;;;;;;;;;;5031333;28;1232;-71
2023/01/17 13:23:28;;;;;;;;;;;;;;;;;;5030836;28;1902;-72
2023/01/17 13:25:53;;;;;;;;;;;;;;;;;;5032658;28;916;-72
2023/01/17 13:28:19;;;;;;;;;;;;;;;;;;5014649;28;1147;-72
2023/01/17 13:30:58;;;;;;;;;;;;;;;;;;5032057;28;956;-72
2023/01/17 13:33:31;;;;;;;;;;;;;;;;;;5031895;28;1061;-72
2023/01/17 13:36:03;;;;;;;;;;;;;;;;;;5031032;28;1137;-72
2023/01/17 13:38:31;;;;;;;;;;;;;;;;;;5029821;28;1327;-71
2023/01/17 13:41:02;;;;;;;;;;;;;;;;;;5032167;28;905;-72
2023/01/17 13:43:36;;;;;;;;;;;;;;;;;;5031745;28;1965;-72
2023/01/17 13:46:05;;;;;;;;;;;;;;;;;;5030729;28;1353;-72
2023/01/17 13:48:30;;;;;;;;;;;;;;;;;;5031927;28;897;-71
2023/01/17 13:51:01;;;;;;;;;;;;;;;;;;5031721;28;1023;-72
2023/01/17 13:53:26;;;;;;;;;;;;;;;;;;5030201;28;1386;-71
2023/01/17 13:55:57;;;;;;;;;;;;;;;;;;5031412;28;928;-72
2023/01/17 13:58:50;;;;;;;;;;;;;;;;;;5029525;28;1367;-71
2023/01/17 14:01:22;;;;;;;;;;;;;;;;;;5029438;28;1363;-71
2023/01/17 14:03:53;;;;;;;;;;;;;;;;;;5030208;28;1910;-72
2023/01/17 14:06:39;;;;;;;;;;;;;;;;;;5030087;28;1308;-72
2023/01/17 14:09:15;;;;;;;;;;;;;;;;;;5029856;28;1134;-72
2023/01/17 14:11:59;;;;;;;;;;;;;;;;;;5030525;28;1324;-72
2023/01/17 14:14:33;;;;;;;;;;;;;;;;;;5031301;28;864;-72
2023/01/17 14:17:14;;;;;;;;;;;;;;;;;;5030319;28;1239;-72
2023/01/17 14:19:40;;;;;;;;;;;;;;;;;;5030031;28;1216;-72
2023/01/17 14:22:20;;;;;;;;;;;;;;;;;;5030414;28;1295;-72
2023/01/17 14:25:08;;;;;;;;;;;;;;;;;;5030142;28;1310;-72
2023/01/17 14:27:35;;;;;;;;;;;;;;;;;;5033336;28;1340;-72
2023/01/17 14:30:01;;;;;;;;;;;;;;;;;;5035681;28;778;-72
2023/01/17 14:32:28;;;;;;;;;;;;;;;;;;5033561;28;1249;-72
2023/01/17 14:34:56;;;;;;;;;;;;;;;;;;5033956;28;1220;-72
2023/01/17 14:37:39;;;;;;;;;;;;;;;;;;5017583;28;1516;-72
2023/01/17 14:40:34;;;;;;;;;;;;;;;;;;5033653;28;1258;-72
2023/01/17 14:43:01;;;;;;;;;;;;;;;;;;5020321;28;1913;-72
2023/01/17 14:45:28;;;;;;;;;;;;;;;;;;5033670;28;1232;-72
2023/01/17 14:47:55;;;;;;;;;;;;;;;;;;5033966;28;1246;-72
2023/01/17 14:50:22;;;;;;;;;;;;;;;;;;5033508;28;1361;-73
2023/01/17 14:53:04;;;;;;;;;;;;;;;;;;5034065;28;1192;-73
2023/01/17 14:55:29;;;;;;;;;;;;;;;;;;5034985;28;943;-73
2023/01/17 14:57:57;;;;;;;;;;;;;;;;;;5034065;28;1167;-73
2023/01/17 15:00:24;;;;;;;;;;;;;;;;;;5034879;28;1146;-73
2023/01/17 15:02:50;;;;;;;;;;;;;;;;;;5033860;28;1967;-73
2023/01/17 15:05:17;;;;;;;;;;;;;;;;;;5033941;28;1212;-73
2023/01/17 15:07:44;;;;;;;;;;;;;;;;;;5035266;28;833;-73
2023/01/17 15:10:12;;;;;;;;;;;;;;;;;;5033805;28;1215;-73
2023/01/17 15:12:37;;;;;;;;;;;;;;;;;;5034684;28;888;-74
2023/01/17 15:15:03;;;;;;;;;;;;;;;;;;5016909;28;1416;-74
2023/01/17 15:17:29;;;;;;;;;;;;;;;;;;5032496;28;1302;-74
2023/01/17 15:19:56;;;;;;;;;;;;;;;;;;5034659;28;743;-73
2023/01/17 15:22:24;;;;;;;;;;;;;;;;;;5032198;28;1900;-73
2023/01/17 15:24:50;;;;;;;;;;;;;;;;;;5033431;28;1299;-73
2023/01/17 15:27:16;;;;;;;;;;;;;;;;;;5016425;28;1207;-74
2023/01/17 15:29:42;;;;;;;;;;;;;;;;;;5034432;28;849;-73
2023/01/17 15:32:17;;;;;;;;;;;;;;;;;;5034516;28;783;-73
2023/01/17 15:34:43;;;;;;;;;;;;;;;;;;5033177;28;1207;-74
2023/01/17 15:37:21;;;;;;;;;;;;;;;;;;5032508;28;1280;-73
2023/01/17 15:39:47;;;;;;;;;;;;;;;;;;5032857;28;1163;-73
2023/01/17 15:42:24;;;;;;;;;;;;;;;;;;5034218;28;971;-74
2023/01/17 15:44:54;;;;;;;;;;;;;;;;;;5032907;28;1504;-73
2023/01/17 15:47:33;;;;;;;;;;;;;;;;;;5033972;28;900;-73
2023/01/17 15:49:59;;;;;;;;;;;;;;;;;;5034076;28;802;-73
2023/01/17 15:52:25;;;;;;;;;;;;;;;;;;5033767;28;853;-74
2023/01/17 15:54:54;;;;;;;;;;;;;;;;;;5016393;28;1219;-73
2023/01/17 15:57:28;;;;;;;;;;;;;;;;;;5033631;28;790;-73
2023/01/17 16:00:20;;;;;;;;;;;;;;;;;;5032268;28;1359;-74
2023/01/17 16:03:08;;;;;;;;;;;;;;;;;;5024061;28;1906;-74
2023/01/17 16:05:37;;;;;;;;;;;;;;;;;;5023555;28;1308;-74
2023/01/17 16:08:03;;;;;;;;;;;;;;;;;;5032105;28;892;-74
2023/01/17 16:10:34;;;;;;;;;;;;;;;;;;5031619;28;841;-73
2023/01/17 16:13:00;;;;;;;;;;;;;;;;;;5031108;28;1378;-74
2023/01/17 16:15:26;;;;;;;;;;;;;;;;;;5030368;28;1298;-74
2023/01/17 16:17:54;;;;;;;;;;;;;;;;;;5014223;28;1377;-73
2023/01/17 16:20:24;;;;;;;;;;;;;;;;;;5029510;28;1653;-73
2023/01/17 16:22:49;;;;;;;;;;;;;;;;;;5033337;28;1975;-72
2023/01/17 16:25:16;;;;;;;;;;;;;;;;;;5032428;28;1239;-72
2023/01/17 16:27:42;;;;;;;;;;;;;;;;;;5032252;28;1294;-72
2023/01/17 16:30:14;;;;;;;;;;;;;;;;;;5032158;28;1207;-72
2023/01/17 16:32:39;;;;;;;;;;;;;;;;;;5033235;28;786;-72
2023/01/17 16:35:05;;;;;;;;;;;;;;;;;;5032172;28;1298;-72
2023/01/17 16:37:31;;;;;;;;;;;;;;;;;;5032564;28;1053;-73
2023/01/17 16:39:56;;;;;;;;;;;;;;;;;;5032611;28;1169;-73
2023/01/17 16:42:22;;;;;;;;;;;;;;;;;;5032150;28;1310;-74
2023/01/17 16:44:50;;;;;;;;;;;;;;;;;;5015590;28;1965;-73
2023/01/17 16:47:19;;;;;;;;;;;;;;;;;;5031838;28;888;-73
2023/01/17 16:49:45;;;;;;;;;;;;;;;;;;5031723;28;1381;-73
2023/01/17 16:52:10;;;;;;;;;;;;;;;;;;5033475;28;924;-73
2023/01/17 16:54:35;;;;;;;;;;;;;;;;;;5015340;28;1022;-73
2023/01/17 16:57:01;;;;;;;;;;;;;;;;;;5015064;28;1314;-79
2023/01/17 16:59:26;;;;;;;;;;;;;;;;;;5018374;28;1140;-78
2023/01/17 17:01:52;;;;;;;;;;;;;;;;;;5035143;28;1334;-78
2023/01/17 17:04:17;;;;;;;;;;;;;;;;;;5036152;28;1886;-78
2023/01/17 17:06:45;;;;;;;;;;;;;;;;;;5035507;28;1259;-78
2023/01/17 17:09:10;;;;;;;;;;;;;;;;;;5035741;28;963;-79
2023/01/17 17:11:36;;;;;;;;;;;;;;;;;;5037481;28;881;-79
2023/01/17 17:14:01;;;;;;;;;;;;;;;;;;5037724;28;928;-79
2023/01/17 17:16:31;;;;;;;;;;;;;;;;;;5035356;28;1311;-79
2023/01/17 17:18:58;;;;;;;;;;;;;;;;;;5035189;28;1327;-79
2023/01/17 17:21:27;;;;;;;;;;;;;;;;;;5035992;28;1062;-79
2023/01/17 17:23:55;;;;;;;;;;;;;;;;;;5036010;28;1894;-79
2023/01/17 17:26:21;;;;;;;;;;;;;;;;;;5036095;28;1365;-79
2023/01/17 17:28:49;;;;;;;;;;;;;;;;;;5034943;28;1091;-79
2023/01/17 17:31:15;;;;;;;;;;;;;;;;;;5033465;28;1349;-79
2023/01/17 17:33:40;;;;;;;;;;;;;;;;;;5036545;28;896;-79
2023/01/17 17:36:06;;;;;;;;;;;;;;;;;;5040887;28;1240;-78
2023/01/17 17:38:33;;;;;;;;;;;;;;;;;;5025217;28;1343;-78
2023/01/17 17:41:08;;;;;;;;;;;;;;;;;;5040355;28;1013;-79
2023/01/17 17:43:40;;;;;;;;;;;;;;;;;;5021557;28;1920;-78
2023/01/17 17:46:05;;;;;;;;;;;;;;;;;;5017980;28;1207;-78
2023/01/17 17:48:31;;;;;;;;;;;;;;;;;;5038056;28;1223;-78
2023/01/17 17:50:57;;;;;;;;;;;;;;;;;;5038508;28;861;-78
2023/01/17 17:53:24;;;;;;;;;;;;;;;;;;5038376;28;1330;-78
2023/01/17 17:55:50;;;;;;;;;;;;;;;;;;5037705;28;880;-78
2023/01/17 17:58:16;;;;;;;;;;;;;;;;;;5036250;28;888;-78
2023/01/17 18:00:41;;;;;;;;;;;;;;;;;;5023209;28;1275;-78
2023/01/17 18:03:06;;;;;;;;;;;;;;;;;;4994234;28;1244829;-78
2023/01/17 18:05:32;;;;;;;;;;;;;;;;;;5034822;28;1176;-78
2023/01/17 18:07:57;;;;;;;;;;;;;;;;;;5033668;28;1500;-72
2023/01/17 18:10:22;;;;;;;;;;;;;;;;;;5032225;28;900;-73
2023/01/17 18:12:48;;;;;;;;;;;;;;;;;;5030817;28;1435;-72
2023/01/17 18:15:13;;;;;;;;;;;;;;;;;;5032512;28;834;-72
2023/01/17 18:17:39;;;;;;;;;;;;;;;;;;5033145;28;885;-72
2023/01/17 18:20:04;;;;;;;;;;;;;;;;;;5031673;28;822;-72
2023/01/17 18:22:32;;;;;;;;;;;;;;;;;;5015376;28;1918;-72
2023/01/17 18:24:57;;;;;;;;;;;;;;;;;;5031349;28;1267;-73
2023/01/17 18:27:23;;;;;;;;;;;;;;;;;;5032748;28;884;-72
2023/01/17 18:29:48;;;;;;;;;;;;;;;;;;5016783;28;1221;-72
2023/01/17 18:32:13;;;;;;;;;;;;;;;;;;5033411;28;1225;-72
2023/01/17 18:34:40;;;;;;;;;;;;;;;;;;5016510;28;1260;-73
2023/01/17 18:37:05;;;;;;;;;;;;;;;;;;5033248;28;865;-71
2023/01/17 18:39:31;;;;;;;;;;;;;;;;;;5031257;28;1086;-72
2023/01/17 18:41:56;;;;;;;;;;;;;;;;;;5033039;28;1220;-73
2023/01/17 18:44:21;;;;;;;;;;;;;;;;;;5031670;28;1902;-72